Terminal Aerodrome Forecast
Issued by NWS Duluth, MN

Home | Current Version | Previous Version | Text Only | Print | Product List | Glossary On
Versions: 1 2 3 4 5 6 7 8 9 10 11 12 13 14 15 16 17 18 19 20 21 22 23 24 25 26 27 28 29 30
136
FTUS43 KDLH 271321 AAA
TAFINL
TAF AMD
KINL 271321Z 2713/2812 31010KT P6SM -DZ SCT015 OVC025
     FM271500 32012KT P6SM -RA OVC015
     FM271800 33012KT P6SM -RA SCT009 OVC012
     FM272200 34010KT P6SM -DZ SCT007 OVC010
     FM280400 36007KT 4SM BR SCT004 OVC007=

USA.gov is the U.S. government's official web portal to all federal, state and local government web resources and services.